Time;durP1;ratioP1;P1;durP2;ratioP2;P2;SDS_P1;SDS_P2;PMS_P1;PMS_P2;Temp;Humidity;BMP_temperature;BMP_pressure;BME280_temperature;BME280_humidity;BME280_pressure;Samples;Min_cycle;Max_cycle;Signal;HPM_P1;HPM_P2
2022/03/14 00:02:14;;;;;;;4.23;3.30;;;11.70;99.90;;;;;;5023302;28;20500;-43
2022/03/14 00:04:40;;;;;;;3.43;2.90;;;11.80;99.90;;;;;;5028790;28;20291;-43
2022/03/14 00:07:05;;;;;;;4.10;3.20;;;11.80;99.90;;;;;;5029214;28;20445;-43
2022/03/14 00:09:31;;;;;;;3.17;2.90;;;11.90;99.90;;;;;;5028835;28;20190;-44
2022/03/14 00:11:57;;;;;;;3.10;2.80;;;11.90;99.90;;;;;;5028308;28;20208;-40
2022/03/14 00:14:26;;;;;;;3.20;2.90;;;12.00;99.90;;;;;;5024943;28;20195;-40
2022/03/14 00:16:54;;;;;;;3.67;3.07;;;11.90;99.90;;;;;;5022460;28;20884;-40
2022/03/14 00:19:20;;;;;;;2.80;2.60;;;11.80;99.90;;;;;;5028926;28;20743;-40
2022/03/14 00:21:47;;;;;;;2.97;2.77;;;12.00;99.90;;;;;;5028302;28;20495;-41
2022/03/14 00:24:13;;;;;;;4.80;3.50;;;11.70;99.90;;;;;;5036440;28;20424;-41
2022/03/14 00:26:39;;;;;;;3.73;3.23;;;11.60;99.90;;;;;;5048711;28;20510;-40
2022/03/14 00:29:07;;;;;;;3.67;3.37;;;11.70;99.90;;;;;;5047551;28;20421;-40
2022/03/14 00:31:33;;;;;;;3.17;2.87;;;11.80;99.90;;;;;;5026842;28;20435;-39
2022/03/14 00:33:59;;;;;;;3.30;3.00;;;11.90;99.90;;;;;;5028568;28;21137;-41
2022/03/14 00:36:25;;;;;;;3.30;3.00;;;11.80;99.90;;;;;;5028658;28;20467;-40
2022/03/14 00:38:52;;;;;;;3.60;3.00;;;11.60;99.90;;;;;;5028306;28;20721;-40
2022/03/14 00:41:18;;;;;;;3.33;3.00;;;11.70;99.90;;;;;;5027799;28;20422;-41
2022/03/14 00:43:45;;;;;;;3.73;2.90;;;11.60;99.90;;;;;;5028869;28;20421;-40
2022/03/14 00:46:10;;;;;;;3.87;3.53;;;11.60;99.90;;;;;;5019951;28;20504;-42
2022/03/14 00:48:36;;;;;;;4.33;3.57;;;11.40;99.90;;;;;;5028443;28;20524;-41
2022/03/14 00:51:04;;;;;;;3.30;3.00;;;11.40;99.90;;;;;;5028128;28;20558;-43
2022/03/14 00:53:31;;;;;;;4.67;3.50;;;11.40;99.90;;;;;;5027925;28;20437;-40
2022/03/14 00:55:59;;;;;;;3.30;3.00;;;11.20;99.90;;;;;;5027226;28;20923;-40
2022/03/14 00:58:26;;;;;;;3.70;3.30;;;11.50;99.90;;;;;;5028056;28;20978;-40
2022/03/14 01:00:52;;;;;;;4.57;4.17;;;11.20;99.90;;;;;;5014910;28;20516;-39
2022/03/14 01:03:18;;;;;;;4.03;3.63;;;11.30;99.90;;;;;;5027389;28;20442;-40
2022/03/14 01:05:43;;;;;;;4.80;3.67;;;11.30;99.90;;;;;;5028044;28;20643;-40
2022/03/14 01:08:09;;;;;;;4.30;3.80;;;11.30;99.90;;;;;;5027553;28;20444;-40
2022/03/14 01:10:35;;;;;;;4.30;3.90;;;11.30;99.90;;;;;;5027502;28;20259;-40
2022/03/14 01:13:03;;;;;;;6.43;4.23;;;11.30;99.90;;;;;;5027826;28;20427;-40
2022/03/14 01:15:30;;;;;;;3.83;3.40;;;11.50;99.90;;;;;;5018860;28;20544;-41
2022/03/14 01:17:56;;;;;;;3.83;3.30;;;11.40;99.90;;;;;;5027387;28;20409;-40
2022/03/14 01:20:22;;;;;;;5.70;3.90;;;11.50;99.90;;;;;;5025769;28;20552;-40
2022/03/14 01:22:47;;;;;;;3.73;3.40;;;11.60;99.90;;;;;;5033329;28;20428;-40
2022/03/14 01:25:13;;;;;;;5.00;4.20;;;11.70;99.90;;;;;;5041565;28;20448;-42
2022/03/14 01:27:39;;;;;;;4.50;4.10;;;11.70;99.90;;;;;;5047634;28;20185;-39
2022/03/14 01:30:05;;;;;;;5.20;4.70;;;11.80;99.90;;;;;;5036210;28;20242;-40
2022/03/14 01:32:30;;;;;;;5.00;4.50;;;11.70;99.90;;;;;;5026269;28;20572;-39
2022/03/14 01:34:56;;;;;;;5.00;4.43;;;11.80;99.90;;;;;;5027203;28;20478;-39
2022/03/14 01:37:22;;;;;;;5.50;4.70;;;11.60;99.90;;;;;;5027968;28;20194;-40
2022/03/14 01:39:48;;;;;;;5.00;4.50;;;11.80;99.90;;;;;;5026749;28;20263;-42
2022/03/14 01:42:19;;;;;;;4.70;4.20;;;11.70;99.90;;;;;;5026385;28;20190;-39
2022/03/14 01:44:46;;;;;;;4.57;4.07;;;11.70;99.90;;;;;;5026863;28;20643;-40
2022/03/14 01:47:15;;;;;;;4.50;4.10;;;11.50;99.90;;;;;;5018762;28;20836;-39
2022/03/14 01:49:42;;;;;;;4.83;4.37;;;11.50;99.90;;;;;;5026776;28;20456;-40
2022/03/14 01:52:08;;;;;;;4.77;4.10;;;11.50;99.90;;;;;;5027510;28;20417;-40
2022/03/14 01:54:35;;;;;;;4.43;4.03;;;11.60;99.90;;;;;;5025851;28;20417;-40
2022/03/14 01:57:00;;;;;;;4.17;3.73;;;11.70;99.90;;;;;;5027389;28;20436;-41
2022/03/14 01:59:29;;;;;;;4.73;3.77;;;11.60;99.90;;;;;;5027079;28;20544;-39
2022/03/14 02:01:56;;;;;;;4.00;3.60;;;11.70;99.90;;;;;;5016675;28;20309;-39
2022/03/14 02:04:22;;;;;;;4.33;3.93;;;11.70;99.90;;;;;;5026603;28;20463;-40
2022/03/14 02:06:49;;;;;;;4.67;3.97;;;11.70;99.90;;;;;;5027664;28;20429;-41
2022/03/14 02:09:15;;;;;;;4.40;3.90;;;11.70;99.90;;;;;;5027149;28;20429;-40
2022/03/14 02:11:56;;;;;;;4.40;3.77;;;12.00;99.90;;;;;;5026605;28;20425;-40
2022/03/14 02:14:25;;;;;;;4.23;3.80;;;11.70;99.90;;;;;;5027597;28;20668;-41
2022/03/14 02:16:51;;;;;;;4.17;3.77;;;11.60;99.90;;;;;;5016264;28;20433;-40
2022/03/14 02:19:18;;;;;;;4.43;4.00;;;11.70;99.90;;;;;;5030933;28;20473;-40
2022/03/14 02:21:44;;;;;;;4.20;3.80;;;11.60;99.90;;;;;;5030434;28;20409;-40
2022/03/14 02:24:10;;;;;;;5.37;4.87;;;11.80;99.90;;;;;;5043420;28;20424;-41
2022/03/14 02:26:40;;;;;;;5.07;4.57;;;11.50;99.90;;;;;;5051017;28;20419;-40
2022/03/14 02:29:09;;;;;;;4.60;4.13;;;11.50;99.90;;;;;;5051044;28;20517;-42
2022/03/14 02:31:36;;;;;;;4.60;4.20;;;11.60;99.90;;;;;;5023940;28;20456;-40
2022/03/14 02:34:07;;;;;;;5.33;4.80;;;11.40;99.90;;;;;;5030340;28;20478;-40
2022/03/14 02:36:37;;;;;;;8.57;5.27;;;11.40;99.90;;;;;;5023593;28;20426;-40
2022/03/14 02:39:03;;;;;;;4.87;4.40;;;11.50;99.90;;;;;;5030950;28;20548;-39
2022/03/14 02:41:28;;;;;;;7.40;5.00;;;11.40;99.90;;;;;;5030056;28;20944;-40
2022/03/14 02:43:55;;;;;;;6.37;5.00;;;11.50;99.90;;;;;;5030584;28;20236;-39
2022/03/14 02:46:21;;;;;;;5.60;5.00;;;11.40;99.90;;;;;;5020823;28;20182;-39
2022/03/14 02:48:46;;;;;;;6.00;5.40;;;11.50;99.90;;;;;;5030357;28;20901;-40
2022/03/14 02:51:12;;;;;;;6.67;5.60;;;11.50;99.90;;;;;;5028949;28;20190;-39
2022/03/14 02:53:38;;;;;;;5.87;5.27;;;11.60;99.90;;;;;;5030646;28;20582;-39
2022/03/14 02:56:04;;;;;;;6.67;5.97;;;11.60;99.90;;;;;;5029324;28;21029;-41
2022/03/14 02:58:33;;;;;;;8.77;6.63;;;11.40;99.90;;;;;;5030215;28;20206;-41
2022/03/14 03:01:00;;;;;;;8.13;6.00;;;11.30;99.90;;;;;;5023725;28;20445;-39
2022/03/14 03:03:27;;;;;;;7.70;6.63;;;11.20;99.90;;;;;;5023805;28;20482;-40
2022/03/14 03:05:53;;;;;;;6.43;5.80;;;11.20;99.90;;;;;;5030762;28;20816;-43
2022/03/14 03:08:22;;;;;;;6.00;5.40;;;11.20;99.90;;;;;;5050271;28;20805;-40
2022/03/14 03:10:48;;;;;;;7.53;6.20;;;11.30;99.90;;;;;;5044720;28;20436;-40
2022/03/14 03:13:14;;;;;;;9.23;6.63;;;11.20;99.90;;;;;;5035553;28;20788;-39
2022/03/14 03:15:39;;;;;;;7.20;6.50;;;11.20;99.90;;;;;;5018561;28;20434;-41
2022/03/14 03:18:06;;;;;;;8.50;7.13;;;11.40;99.90;;;;;;5025184;28;20417;-39
2022/03/14 03:20:32;;;;;;;7.90;6.30;;;11.40;99.90;;;;;;5028491;28;20570;-40
2022/03/14 03:22:57;;;;;;;8.13;6.50;;;11.20;99.90;;;;;;5037092;28;20432;-39
2022/03/14 03:25:23;;;;;;;8.50;7.10;;;11.20;99.90;;;;;;5048619;28;20253;-39
2022/03/14 03:27:49;;;;;;;7.37;6.67;;;11.20;99.90;;;;;;5049028;28;20209;-40
2022/03/14 03:30:15;;;;;;;8.30;7.27;;;11.30;99.90;;;;;;5048482;28;20214;-40
2022/03/14 03:32:41;;;;;;;8.23;6.83;;;11.00;99.90;;;;;;5018510;28;20215;-40
2022/03/14 03:35:07;;;;;;;8.37;6.73;;;11.00;99.90;;;;;;5023599;28;20427;-40
2022/03/14 03:37:33;;;;;;;7.70;6.20;;;11.10;99.90;;;;;;5030144;28;20425;-40
2022/03/14 03:39:59;;;;;;;7.53;6.43;;;11.00;99.90;;;;;;5028811;28;20997;-40
2022/03/14 03:42:24;;;;;;;6.40;5.80;;;11.00;99.90;;;;;;5030091;28;20194;-39
2022/03/14 03:44:50;;;;;;;9.20;6.60;;;11.00;99.90;;;;;;5029815;28;20618;-40
2022/03/14 03:47:15;;;;;;;7.10;6.00;;;11.00;99.90;;;;;;5020071;28;20179;-41
2022/03/14 03:49:41;;;;;;;8.50;7.00;;;11.00;99.90;;;;;;5028887;28;20205;-40
2022/03/14 03:52:07;;;;;;;6.80;5.70;;;10.90;99.90;;;;;;5030090;28;20808;-39
2022/03/14 03:54:34;;;;;;;6.03;5.43;;;11.10;99.90;;;;;;5028650;28;20183;-39
2022/03/14 03:56:59;;;;;;;6.90;6.17;;;10.90;99.90;;;;;;5016323;28;20441;-39
2022/03/14 03:59:25;;;;;;;9.87;6.40;;;10.90;99.90;;;;;;5029328;28;20472;-42
2022/03/14 04:01:52;;;;;;;9.23;6.40;;;11.00;99.90;;;;;;5020729;28;20804;-40
2022/03/14 04:04:18;;;;;;;6.13;5.53;;;10.90;99.90;;;;;;5029555;28;20494;-40
2022/03/14 04:06:44;;;;;;;6.23;5.30;;;10.90;99.90;;;;;;5029376;28;20533;-39
2022/03/14 04:09:10;;;;;;;7.63;5.90;;;10.90;99.90;;;;;;5029102;28;20190;-41
2022/03/14 04:11:38;;;;;;;6.67;5.23;;;10.90;99.90;;;;;;5028667;28;20870;-40
2022/03/14 04:14:03;;;;;;;7.17;6.50;;;10.80;99.90;;;;;;5029225;28;20444;-39
2022/03/14 04:16:29;;;;;;;6.83;5.83;;;10.80;99.90;;;;;;5020476;28;20438;-40
2022/03/14 04:18:56;;;;;;;5.77;5.10;;;10.80;99.90;;;;;;5026222;28;20210;-40
2022/03/14 04:21:23;;;;;;;5.83;5.23;;;10.90;99.90;;;;;;5028739;28;20470;-39
2022/03/14 04:23:48;;;;;;;6.53;5.43;;;10.80;99.90;;;;;;5043309;28;20420;-40
2022/03/14 04:26:14;;;;;;;6.27;5.10;;;10.80;99.90;;;;;;5037796;28;20782;-39
2022/03/14 04:28:41;;;;;;;6.87;6.27;;;10.80;99.90;;;;;;5049195;28;20428;-39
2022/03/14 04:31:09;;;;;;;5.53;5.00;;;10.70;99.90;;;;;;5039983;28;20445;-39
2022/03/14 04:33:35;;;;;;;7.93;5.80;;;10.80;99.90;;;;;;5024672;28;20405;-42
2022/03/14 04:36:00;;;;;;;5.83;5.30;;;10.80;99.90;;;;;;5028709;28;20555;-39
2022/03/14 04:38:27;;;;;;;7.10;6.10;;;10.80;99.90;;;;;;5028312;28;20500;-39
2022/03/14 04:40:53;;;;;;;7.20;5.43;;;10.80;99.90;;;;;;5028400;28;20560;-39
2022/03/14 04:43:21;;;;;;;7.03;5.83;;;10.70;99.90;;;;;;5027660;28;20494;-39
2022/03/14 04:45:48;;;;;;;5.93;5.30;;;10.70;99.90;;;;;;5027300;28;20762;-39
2022/03/14 04:48:15;;;;;;;7.20;5.83;;;10.70;99.90;;;;;;5020906;28;20406;-40
2022/03/14 04:50:41;;;;;;;6.20;4.73;;;10.60;99.90;;;;;;5027927;28;20428;-39
2022/03/14 04:53:08;;;;;;;6.30;5.00;;;10.60;99.90;;;;;;5028200;28;20840;-40
2022/03/14 04:55:35;;;;;;;6.67;5.47;;;10.60;99.90;;;;;;5027758;28;20429;-39
2022/03/14 04:58:01;;;;;;;7.13;5.03;;;10.50;99.90;;;;;;5028427;28;20911;-39
2022/03/14 05:00:28;;;;;;;5.90;5.20;;;10.50;99.90;;;;;;5027822;28;20464;-40
2022/03/14 05:03:03;;;;;;;6.23;5.00;;;10.40;99.90;;;;;;5015521;28;20438;-39
2022/03/14 05:05:29;;;;;;;7.27;5.80;;;10.70;99.90;;;;;;5023018;28;20911;-40
2022/03/14 05:07:55;;;;;;;7.07;5.70;;;10.50;99.90;;;;;;5028280;28;20429;-39
2022/03/14 05:10:22;;;;;;;5.97;5.37;;;10.50;99.90;;;;;;5027782;28;20417;-40
2022/03/14 05:12:48;;;;;;;6.70;5.30;;;10.60;99.90;;;;;;5028087;28;20417;-39
2022/03/14 05:15:17;;;;;;;7.03;5.77;;;10.50;99.90;;;;;;5028213;28;20421;-40
2022/03/14 05:17:47;;;;;;;6.73;5.70;;;10.40;99.90;;;;;;5024948;28;20437;-40
2022/03/14 05:20:13;;;;;;;7.07;5.83;;;10.60;99.90;;;;;;5025733;28;20464;-42
2022/03/14 05:22:48;;;;;;;6.30;5.03;;;10.40;99.90;;;;;;5031653;28;20873;-39
2022/03/14 05:25:16;;;;;;;8.10;6.47;;;10.40;99.90;;;;;;5041750;28;20850;-39
2022/03/14 05:27:42;;;;;;;5.10;4.60;;;10.50;99.90;;;;;;5047895;28;20431;-40
2022/03/14 05:30:08;;;;;;;6.83;5.30;;;10.30;99.90;;;;;;5045886;28;20424;-39
2022/03/14 05:32:39;;;;;;;5.90;4.70;;;10.40;99.90;;;;;;5026044;28;20186;-39
2022/03/14 05:35:06;;;;;;;6.00;5.40;;;10.40;99.90;;;;;;5026500;28;20448;-40
2022/03/14 05:37:32;;;;;;;5.00;4.50;;;10.40;99.90;;;;;;5027843;28;20425;-39
2022/03/14 05:39:58;;;;;;;6.90;4.73;;;10.50;99.90;;;;;;5025551;28;20526;-40
2022/03/14 05:42:25;;;;;;;5.20;4.70;;;10.50;99.90;;;;;;5027727;28;20182;-39
2022/03/14 05:44:51;;;;;;;6.53;5.53;;;10.50;99.90;;;;;;5027533;28;20451;-40
2022/03/14 05:47:17;;;;;;;5.63;5.13;;;10.50;99.90;;;;;;5017590;28;20513;-41
2022/03/14 05:49:43;;;;;;;6.50;5.37;;;10.30;99.90;;;;;;5023228;28;20425;-40
2022/03/14 05:52:09;;;;;;;6.70;6.10;;;10.30;99.90;;;;;;5027486;28;20467;-40
2022/03/14 05:54:34;;;;;;;9.20;6.00;;;10.10;99.90;;;;;;5026745;28;20701;-40
2022/03/14 05:57:00;;;;;;;6.60;5.30;;;10.00;99.90;;;;;;5027259;28;20260;-39
2022/03/14 05:59:26;;;;;;;7.30;6.50;;;10.20;99.90;;;;;;5027131;28;20463;-40
2022/03/14 06:01:52;;;;;;;6.93;6.30;;;9.90;99.90;;;;;;5023142;28;20210;-39
2022/03/14 06:04:18;;;;;;;7.93;7.13;;;10.00;99.90;;;;;;5021497;28;20441;-39
2022/03/14 06:06:44;;;;;;;10.73;8.10;;;10.00;99.90;;;;;;5027567;28;20178;-39
2022/03/14 06:09:09;;;;;;;9.00;7.93;;;10.00;99.90;;;;;;5027530;28;20274;-39
2022/03/14 06:11:38;;;;;;;7.90;7.10;;;10.00;99.90;;;;;;5026840;28;20471;-40
2022/03/14 06:14:05;;;;;;;8.53;7.73;;;10.00;99.90;;;;;;5027241;28;20191;-39
2022/03/14 06:16:31;;;;;;;9.87;8.90;;;9.90;99.90;;;;;;5024337;28;20447;-42
2022/03/14 06:18:57;;;;;;;10.83;9.80;;;9.90;99.90;;;;;;5021618;28;20493;-41
2022/03/14 06:21:22;;;;;;;10.83;9.70;;;9.90;99.90;;;;;;5026856;28;20456;-40
2022/03/14 06:23:48;;;;;;;12.90;9.27;;;10.10;99.90;;;;;;5040838;28;20240;-40
2022/03/14 06:26:15;;;;;;;9.90;8.90;;;9.80;99.90;;;;;;5043586;28;20243;-41
2022/03/14 06:28:41;;;;;;;9.93;8.90;;;9.90;99.90;;;;;;5046939;28;20243;-39
2022/03/14 06:31:09;;;;;;;11.17;9.70;;;9.80;99.90;;;;;;5044986;28;20785;-40
2022/03/14 06:33:34;;;;;;;9.37;8.30;;;9.80;99.90;;;;;;5023350;28;20487;-40
2022/03/14 06:36:00;;;;;;;10.50;8.80;;;9.70;99.90;;;;;;5027127;28;20944;-39
2022/03/14 06:38:26;;;;;;;11.07;9.60;;;9.80;99.90;;;;;;5027061;28;20198;-41
2022/03/14 06:40:56;;;;;;;11.33;10.17;;;9.80;99.90;;;;;;5026618;28;20245;-42
2022/03/14 06:43:22;;;;;;;10.10;8.90;;;9.50;99.90;;;;;;5026859;28;20201;-40
2022/03/14 06:45:49;;;;;;;10.57;9.17;;;9.70;99.90;;;;;;5027207;28;20494;-39
2022/03/14 06:48:15;;;;;;;10.37;9.27;;;9.60;99.90;;;;;;5013814;28;20430;-40
2022/03/14 06:50:41;;;;;;;10.30;9.17;;;9.80;99.90;;;;;;5026306;28;20802;-41
2022/03/14 06:53:07;;;;;;;10.60;9.37;;;9.60;99.90;;;;;;5025034;28;20421;-43
2022/03/14 06:55:32;;;;;;;13.03;9.40;;;9.60;99.90;;;;;;5025973;28;20425;-40
2022/03/14 06:57:59;;;;;;;11.40;10.20;;;9.50;99.90;;;;;;5027019;28;20502;-40
2022/03/14 07:00:26;;;;;;;11.53;10.33;;;9.40;99.90;;;;;;5025621;28;20287;-40
2022/03/14 07:02:52;;;;;;;11.17;9.40;;;9.50;99.90;;;;;;5021217;28;20465;-39
2022/03/14 07:05:20;;;;;;;12.37;9.20;;;9.60;99.90;;;;;;5024083;28;20790;-40
2022/03/14 07:07:47;;;;;;;10.50;9.50;;;9.60;99.90;;;;;;5030437;28;20478;-40
2022/03/14 07:10:14;;;;;;;9.80;8.80;;;9.60;99.90;;;;;;5029932;28;20857;-39
2022/03/14 07:12:45;;;;;;;12.17;10.20;;;9.60;99.90;;;;;;5029947;28;20633;-39
2022/03/14 07:15:22;;;;;;;9.87;8.83;;;9.50;99.90;;;;;;5030469;28;20428;-40
2022/03/14 07:17:48;;;;;;;10.63;8.60;;;9.60;99.90;;;;;;5025585;28;20433;-39
2022/03/14 07:20:14;;;;;;;10.20;9.13;;;9.60;99.90;;;;;;5021700;28;20870;-40
2022/03/14 07:22:58;;;;;;;13.27;9.70;;;9.50;99.90;;;;;;5034499;28;20467;-39
2022/03/14 07:25:26;;;;;;;11.47;9.57;;;9.40;99.90;;;;;;5049561;28;20844;-40
2022/03/14 07:27:54;;;;;;;11.87;9.47;;;9.40;99.90;;;;;;5050062;28;20423;-39
2022/03/14 07:30:20;;;;;;;10.57;9.47;;;9.50;99.90;;;;;;5049499;28;20452;-42
2022/03/14 07:32:46;;;;;;;11.80;9.93;;;9.60;99.90;;;;;;5035258;28;20855;-39
2022/03/14 07:35:12;;;;;;;10.37;9.37;;;9.30;99.90;;;;;;5025291;28;20429;-41
2022/03/14 07:37:39;;;;;;;9.70;8.70;;;9.30;99.90;;;;;;5030031;28;20451;-40
2022/03/14 07:40:06;;;;;;;9.73;8.17;;;9.50;99.90;;;;;;5029161;28;20461;-39
2022/03/14 07:42:32;;;;;;;11.37;7.10;;;9.40;99.90;;;;;;5028817;28;20432;-40
2022/03/14 07:44:57;;;;;;;9.67;7.80;;;9.50;99.90;;;;;;5029664;28;20417;-39
2022/03/14 07:47:24;;;;;;;9.43;6.93;;;9.70;99.90;;;;;;5026095;28;20569;-39
2022/03/14 07:49:50;;;;;;;10.30;6.93;;;9.70;99.90;;;;;;5025639;28;20266;-39
2022/03/14 07:52:15;;;;;;;6.90;6.10;;;9.80;99.90;;;;;;5029519;28;20417;-40
2022/03/14 07:54:41;;;;;;;7.47;6.67;;;9.70;99.90;;;;;;5029043;28;20190;-39
2022/03/14 07:57:07;;;;;;;9.60;6.47;;;9.80;99.90;;;;;;5029684;28;20295;-41
2022/03/14 07:59:32;;;;;;;7.47;6.73;;;9.70;99.90;;;;;;5042447;28;20700;-40
2022/03/14 08:01:59;;;;;;;9.57;5.90;;;9.80;99.90;;;;;;5048086;28;20197;-40
2022/03/14 08:04:24;;;;;;;10.70;6.43;;;9.60;99.90;;;;;;5020204;28;20538;-39
2022/03/14 08:06:51;;;;;;;8.67;6.20;;;9.70;99.90;;;;;;5029133;28;20809;-41
2022/03/14 08:09:21;;;;;;;7.50;6.20;;;9.60;99.90;;;;;;5029430;28;20236;-39
2022/03/14 08:11:47;;;;;;;7.73;6.20;;;9.60;99.90;;;;;;5028479;28;21003;-39
2022/03/14 08:14:12;;;;;;;10.10;6.80;;;9.60;99.90;;;;;;5028817;28;20504;-42
2022/03/14 08:16:38;;;;;;;7.90;6.67;;;9.70;99.90;;;;;;5029273;28;20512;-40
2022/03/14 08:19:04;;;;;;;9.30;5.80;;;9.70;99.90;;;;;;5015390;28;20464;-39
2022/03/14 08:21:30;;;;;;;8.90;6.67;;;9.60;99.90;;;;;;5028083;28;20193;-40
2022/03/14 08:23:55;;;;;;;7.43;6.60;;;9.80;99.90;;;;;;5044188;28;20507;-39
2022/03/14 08:26:22;;;;;;;9.07;6.07;;;9.60;99.90;;;;;;5043506;28;20417;-39
2022/03/14 08:28:47;;;;;;;8.13;6.27;;;9.60;99.90;;;;;;5043015;28;20698;-39
2022/03/14 08:31:17;;;;;;;9.03;6.50;;;9.70;99.90;;;;;;5048191;28;20418;-39
2022/03/14 08:33:44;;;;;;;8.20;6.80;;;9.80;99.90;;;;;;5026937;28;20512;-40
2022/03/14 08:36:10;;;;;;;7.47;6.50;;;9.70;99.90;;;;;;5028594;28;20837;-39
2022/03/14 08:38:37;;;;;;;8.50;6.93;;;10.00;99.90;;;;;;5028707;28;20501;-39
2022/03/14 08:41:03;;;;;;;11.20;7.37;;;9.90;99.90;;;;;;5028039;28;20487;-39
2022/03/14 08:43:29;;;;;;;9.60;6.33;;;9.90;99.90;;;;;;5027465;28;20421;-39
2022/03/14 08:45:55;;;;;;;7.07;6.37;;;10.10;99.90;;;;;;5028741;28;20425;-40
2022/03/14 08:48:21;;;;;;;8.40;6.20;;;9.90;99.90;;;;;;5022337;28;20218;-40
2022/03/14 08:50:47;;;;;;;6.80;5.97;;;10.00;99.90;;;;;;5024947;28;20429;-40
2022/03/14 08:53:13;;;;;;;9.53;6.70;;;9.90;99.90;;;;;;5028590;28;21175;-39
2022/03/14 08:55:39;;;;;;;11.47;6.70;;;9.80;99.90;;;;;;5027442;28;20198;-40
2022/03/14 08:58:05;;;;;;;9.60;6.33;;;9.90;99.90;;;;;;5027331;28;20797;-40
2022/03/14 09:00:31;;;;;;;9.23;6.30;;;9.90;99.90;;;;;;5027664;28;20309;-41
2022/03/14 09:02:56;;;;;;;9.40;6.27;;;9.90;99.90;;;;;;5024130;28;20379;-39
2022/03/14 09:05:22;;;;;;;7.77;6.67;;;10.10;99.90;;;;;;5022461;28;20555;-39
2022/03/14 09:07:49;;;;;;;9.00;7.40;;;10.00;99.90;;;;;;5026718;28;20194;-39
2022/03/14 09:10:17;;;;;;;9.10;7.13;;;10.30;99.90;;;;;;5027584;28;20421;-39
2022/03/14 09:12:43;;;;;;;9.47;6.97;;;10.10;99.90;;;;;;5026864;28;20500;-40
2022/03/14 09:15:10;;;;;;;9.93;6.70;;;10.20;99.90;;;;;;5028149;28;20421;-40
2022/03/14 09:17:50;;;;;;;9.10;6.57;;;10.20;99.90;;;;;;5027745;28;20456;-40
2022/03/14 09:20:17;;;;;;;8.23;6.40;;;10.20;99.90;;;;;;5019175;28;20468;-40
2022/03/14 09:22:45;;;;;;;8.17;6.83;;;10.20;99.90;;;;;;5027832;28;20433;-40
2022/03/14 09:25:14;;;;;;;10.10;6.70;;;10.40;99.90;;;;;;5027168;28;20452;-39
2022/03/14 09:27:41;;;;;;;8.20;6.80;;;10.30;99.90;;;;;;5027748;28;20507;-43
2022/03/14 09:30:08;;;;;;;9.13;7.20;;;10.10;99.90;;;;;;5025785;28;20525;-40
2022/03/14 09:32:34;;;;;;;7.37;6.43;;;10.40;99.90;;;;;;5027511;28;21062;-43
2022/03/14 09:35:00;;;;;;;8.17;7.00;;;10.40;99.90;;;;;;5013381;28;20695;-41
2022/03/14 09:37:29;;;;;;;9.47;6.70;;;10.30;99.90;;;;;;5027515;28;20190;-40
2022/03/14 09:39:55;;;;;;;9.10;7.50;;;10.30;99.90;;;;;;5027116;28;20457;-39
2022/03/14 09:42:22;;;;;;;8.90;7.27;;;10.40;99.90;;;;;;5027944;28;20436;-42
2022/03/14 09:44:53;;;;;;;11.27;6.80;;;10.40;99.90;;;;;;5027421;28;20571;-40
2022/03/14 09:47:24;;;;;;;12.40;7.67;;;10.40;99.90;;;;;;5027833;28;20971;-40
2022/03/14 09:49:54;;;;;;;9.10;6.43;;;10.40;99.90;;;;;;5013886;28;20438;-39
2022/03/14 09:52:21;;;;;;;9.80;6.60;;;10.50;99.90;;;;;;5028287;28;20814;-40
2022/03/14 09:54:49;;;;;;;7.50;6.70;;;10.60;99.90;;;;;;5025909;28;20803;-39
2022/03/14 09:57:15;;;;;;;11.43;7.10;;;10.60;99.90;;;;;;5027242;28;20483;-40
2022/03/14 09:59:42;;;;;;;9.63;7.50;;;10.50;99.90;;;;;;5026603;28;20527;-39
2022/03/14 10:02:12;;;;;;;10.40;6.20;;;10.50;99.90;;;;;;5027610;28;20910;-39
2022/03/14 10:04:38;;;;;;;17.23;9.37;;;10.50;99.90;;;;;;5017331;28;20430;-40
2022/03/14 10:07:05;;;;;;;8.57;7.13;;;10.80;99.90;;;;;;5026424;28;20479;-41
2022/03/14 10:09:31;;;;;;;9.03;6.30;;;10.70;99.90;;;;;;5026992;28;20433;-42
2022/03/14 10:11:57;;;;;;;8.77;6.97;;;10.70;99.90;;;;;;5026569;28;20818;-40
2022/03/14 10:14:23;;;;;;;9.30;6.83;;;10.60;99.90;;;;;;5027203;28;20193;-42
2022/03/14 10:16:51;;;;;;;6.93;6.23;;;10.80;99.90;;;;;;5027330;28;20425;-39
2022/03/14 10:19:20;;;;;;;8.50;6.57;;;10.60;99.90;;;;;;5021079;28;20971;-39
2022/03/14 10:21:46;;;;;;;10.23;7.40;;;10.60;99.90;;;;;;5024071;28;20427;-40
2022/03/14 10:24:13;;;;;;;8.50;6.50;;;10.70;99.90;;;;;;5026658;28;20425;-40
2022/03/14 10:26:44;;;;;;;7.00;6.33;;;10.80;99.90;;;;;;5027315;28;20934;-39
2022/03/14 10:29:13;;;;;;;7.90;6.23;;;10.70;99.90;;;;;;5027027;28;20977;-39
2022/03/14 10:31:41;;;;;;;10.37;6.90;;;10.80;99.90;;;;;;5006024;28;20619;-39
2022/03/14 10:34:10;;;;;;;9.80;6.30;;;10.60;99.90;;;;;;5019890;28;20974;-40
2022/03/14 10:36:53;;;;;;;8.67;6.30;;;10.70;99.90;;;;;;5025715;28;20448;-42
2022/03/14 10:39:27;;;;;;;8.90;6.73;;;10.90;99.90;;;;;;5026481;28;20460;-41
2022/03/14 10:42:10;;;;;;;10.80;6.10;;;10.70;99.90;;;;;;5030164;28;20994;-42
2022/03/14 10:44:38;;;;;;;6.47;5.83;;;10.80;99.90;;;;;;5031083;28;20431;-41
2022/03/14 10:47:07;;;;;;;7.47;6.10;;;10.70;99.90;;;;;;5030660;28;20429;-41
2022/03/14 10:49:34;;;;;;;7.83;5.90;;;10.80;99.90;;;;;;5020754;28;20437;-39
2022/03/14 10:52:03;;;;;;;7.67;6.20;;;10.80;99.90;;;;;;5029985;28;20833;-40
2022/03/14 10:54:29;;;;;;;8.63;5.73;;;10.90;99.90;;;;;;5030904;28;20512;-39
2022/03/14 10:57:04;;;;;;;13.63;6.60;;;11.00;99.90;;;;;;5044236;28;21067;-39
2022/03/14 10:59:34;;;;;;;7.60;6.37;;;10.90;99.90;;;;;;5030605;28;20206;-42
2022/03/14 11:02:08;;;;;;;7.57;6.07;;;10.80;99.90;;;;;;5030326;28;20431;-41
2022/03/14 11:05:05;;;;;;;9.20;6.23;;;10.90;99.90;;;;;;5020831;28;21001;-40
2022/03/14 11:07:32;;;;;;;9.23;6.43;;;10.80;99.90;;;;;;5021728;28;20479;-40
2022/03/14 11:09:59;;;;;;;6.40;5.80;;;10.80;99.90;;;;;;5029766;28;20421;-41
2022/03/14 11:12:28;;;;;;;10.40;6.73;;;11.00;99.90;;;;;;5030450;28;20425;-43
2022/03/14 11:14:54;;;;;;;8.20;6.33;;;10.90;99.90;;;;;;5030587;28;20474;-40
2022/03/14 11:17:25;;;;;;;6.87;5.23;;;11.00;99.90;;;;;;5029054;28;20494;-45
2022/03/14 11:19:52;;;;;;;7.80;5.77;;;11.20;99.90;;;;;;5020323;28;20473;-41
2022/03/14 11:22:19;;;;;;;8.13;6.33;;;11.50;99.90;;;;;;5030417;28;20665;-40
2022/03/14 11:24:48;;;;;;;5.87;5.00;;;11.60;99.90;;;;;;5030252;28;20421;-39
2022/03/14 11:27:30;;;;;;;8.50;5.87;;;11.40;99.90;;;;;;5030028;28;20801;-39
2022/03/14 11:30:11;;;;;;;7.37;5.53;;;11.60;99.90;;;;;;5029719;28;20674;-39
2022/03/14 11:32:37;;;;;;;7.07;5.87;;;11.80;99.90;;;;;;5030324;28;20452;-40
2022/03/14 11:35:07;;;;;;;7.50;5.40;;;11.80;99.90;;;;;;5018239;28;20425;-39
2022/03/14 11:37:33;;;;;;;6.40;5.40;;;11.90;99.90;;;;;;5030008;28;20846;-39
2022/03/14 11:40:02;;;;;;;7.00;6.20;;;12.00;99.90;;;;;;5027857;28;20476;-40
2022/03/14 11:42:28;;;;;;;7.63;6.40;;;12.10;99.90;;;;;;5029756;28;20417;-40
2022/03/14 11:44:54;;;;;;;7.27;5.90;;;12.20;99.90;;;;;;5029717;28;20428;-40
2022/03/14 11:47:22;;;;;;;6.93;6.23;;;12.20;99.90;;;;;;5028915;28;20198;-40
2022/03/14 11:49:48;;;;;;;10.70;6.23;;;12.10;99.90;;;;;;5022154;28;20484;-40
2022/03/14 11:52:22;;;;;;;11.10;7.07;;;12.10;99.90;;;;;;5023051;28;20520;-40
2022/03/14 11:54:58;;;;;;;8.83;6.60;;;12.10;99.90;;;;;;5028026;28;20449;-43
2022/03/14 11:57:41;;;;;;;6.90;6.13;;;12.00;99.90;;;;;;5028524;28;20954;-40
2022/03/14 12:00:27;;;;;;;7.53;5.60;;;12.10;99.90;;;;;;5015924;28;20457;-40
2022/03/14 12:03:01;;;;;;;10.30;5.27;;;12.10;99.90;;;;;;5029484;28;20420;-43
2022/03/14 12:05:35;;;;;;;8.00;6.10;;;12.00;99.90;;;;;;5020275;28;20433;-43
2022/03/14 12:08:10;;;;;;;8.20;5.50;;;12.10;99.90;;;;;;5028426;28;20420;-39
2022/03/14 12:10:36;;;;;;;8.50;5.50;;;12.20;99.90;;;;;;5021535;28;20443;-41
2022/03/14 12:13:03;;;;;;;9.70;5.20;;;12.20;99.90;;;;;;5029303;28;20421;-40
2022/03/14 12:15:48;;;;;;;6.50;4.57;;;12.10;99.90;;;;;;5041247;28;20192;-41
2022/03/14 12:18:38;;;;;;;6.20;5.17;;;12.20;99.90;;;;;;5049260;28;20446;-39
2022/03/14 12:21:42;;;;;;;8.33;4.73;;;12.20;99.90;;;;;;5019479;28;20456;-40
2022/03/14 12:24:17;;;;;;;7.63;5.20;;;12.10;99.90;;;;;;5025613;28;20425;-40
2022/03/14 12:26:43;;;;;;;5.57;4.57;;;12.20;99.90;;;;;;5029206;28;20425;-40
2022/03/14 12:29:35;;;;;;;7.33;4.13;;;12.20;99.90;;;;;;5029080;28;20417;-41
2022/03/14 12:32:23;;;;;;;6.57;4.57;;;12.20;99.90;;;;;;5028833;28;20424;-40
2022/03/14 12:35:18;;;;;;;5.80;4.50;;;12.30;99.90;;;;;;5023458;28;20822;-43
2022/03/14 12:37:52;;;;;;;7.90;5.00;;;12.30;99.90;;;;;;5025243;28;20411;-40
2022/03/14 12:40:21;;;;;;;7.07;4.77;;;12.10;99.90;;;;;;5028073;28;20499;-42
2022/03/14 12:42:50;;;;;;;6.97;4.80;;;12.10;99.90;;;;;;5029082;28;20425;-44
2022/03/14 12:45:42;;;;;;;8.67;5.30;;;12.20;99.90;;;;;;5028440;28;20422;-40
2022/03/14 12:48:28;;;;;;;6.23;4.67;;;12.30;99.90;;;;;;5028027;28;20859;-39
2022/03/14 12:51:00;;;;;;;7.20;5.10;;;12.40;99.90;;;;;;5014108;28;20446;-40
2022/03/14 12:53:27;;;;;;;8.33;5.57;;;12.50;99.90;;;;;;5028634;28;20979;-40